createdAt,value
2022-10-11T00:01:33.218Z,100.00
2022-10-11T00:04:01.945Z,100.00
2022-10-11T00:06:30.778Z,100.00
2022-10-11T00:09:07.086Z,100.00
2022-10-11T00:11:35.890Z,100.00
2022-10-11T00:14:05.189Z,100.00
2022-10-11T00:16:34.288Z,100.00
2022-10-11T00:19:03.600Z,100.00
2022-10-11T00:21:32.421Z,100.00
2022-10-11T00:24:02.719Z,100.00
2022-10-11T00:26:31.485Z,100.00
2022-10-11T00:29:00.728Z,100.00
2022-10-11T00:31:33.336Z,100.00
2022-10-11T00:34:04.172Z,100.00
2022-10-11T00:36:33.095Z,100.00
2022-10-11T00:39:03.408Z,100.00
2022-10-11T00:41:32.561Z,100.00
2022-10-11T00:44:14.430Z,100.00
2022-10-11T00:46:47.288Z,100.00
2022-10-11T00:49:25.710Z,100.00
2022-10-11T00:52:03.512Z,100.00
2022-10-11T00:54:40.389Z,100.00
2022-10-11T00:57:15.595Z,100.00
2022-10-11T00:59:50.810Z,100.00
2022-10-11T01:02:21.927Z,100.00
2022-10-11T01:05:05.669Z,100.00
2022-10-11T01:07:41.901Z,100.00
2022-10-11T01:10:12.228Z,100.00
2022-10-11T01:12:58.450Z,100.00
2022-10-11T01:15:37.583Z,100.00
2022-10-11T01:18:15.915Z,100.00
2022-10-11T01:20:59.467Z,100.00
2022-10-11T01:24:22.397Z,100.00
2022-10-11T01:27:40.703Z,100.00
2022-10-11T01:30:29.698Z,100.00
2022-10-11T01:33:19.752Z,100.00
2022-10-11T01:36:00.033Z,100.00
2022-10-11T01:38:38.747Z,100.00
2022-10-11T01:41:16.867Z,100.00
2022-10-11T01:43:48.408Z,100.00
2022-10-11T01:46:21.293Z,100.00
2022-10-11T01:48:51.812Z,100.00
2022-10-11T01:51:25.762Z,100.00
2022-10-11T01:54:15.050Z,100.00
2022-10-11T01:57:11.658Z,100.00
2022-10-11T01:59:50.717Z,100.00
2022-10-11T02:02:42.110Z,100.00
2022-10-11T02:05:22.834Z,100.00
2022-10-11T02:08:00.519Z,100.00
2022-10-11T02:10:40.680Z,100.00
2022-10-11T02:13:15.810Z,100.00
2022-10-11T02:15:48.329Z,100.00
2022-10-11T02:18:22.008Z,100.00
2022-10-11T02:20:53.372Z,100.00
2022-10-11T02:23:29.482Z,100.00
2022-10-11T02:26:00.317Z,100.00
2022-10-11T02:28:35.125Z,100.00
2022-10-11T02:31:07.221Z,100.00
2022-10-11T02:33:46.348Z,100.00
2022-10-11T02:36:27.829Z,100.00
2022-10-11T02:39:06.738Z,100.00
2022-10-11T02:41:43.467Z,100.00
2022-10-11T02:44:21.270Z,100.00
2022-10-11T02:46:52.063Z,100.00
2022-10-11T02:49:23.903Z,100.00
2022-10-11T02:51:52.828Z,100.00
2022-10-11T02:54:21.589Z,100.00
2022-10-11T02:56:50.544Z,100.00
2022-10-11T02:59:19.832Z,100.00
2022-10-11T03:01:48.543Z,100.00
2022-10-11T03:04:17.445Z,100.00
2022-10-11T03:06:47.691Z,100.00
2022-10-11T03:09:16.354Z,100.00
2022-10-11T03:11:45.110Z,100.00
2022-10-11T03:14:13.801Z,100.00
2022-10-11T03:16:42.754Z,100.00
2022-10-11T03:19:15.692Z,100.00
2022-10-11T03:21:48.479Z,100.00
2022-10-11T03:24:17.081Z,100.00
2022-10-11T03:26:45.773Z,100.00
2022-10-11T03:29:14.364Z,100.00
2022-10-11T03:31:43.181Z,100.00
2022-10-11T03:34:11.845Z,100.00
2022-10-11T03:36:40.859Z,100.00
2022-10-11T03:39:11.424Z,100.00
2022-10-11T03:41:40.131Z,100.00
2022-10-11T03:44:09.368Z,100.00
2022-10-11T03:46:38.160Z,100.00
2022-10-11T03:49:07.082Z,100.00
2022-10-11T03:51:37.485Z,100.00
2022-10-11T03:54:06.254Z,100.00
2022-10-11T03:56:36.240Z,100.00
2022-10-11T03:59:04.993Z,100.00
2022-10-11T04:01:38.063Z,100.00
2022-10-11T04:04:09.659Z,100.00
2022-10-11T04:06:38.588Z,100.00
2022-10-11T04:09:07.574Z,100.00
2022-10-11T04:11:37.897Z,100.00
2022-10-11T04:14:06.505Z,100.00
2022-10-11T04:16:35.378Z,100.00
2022-10-11T04:19:08.376Z,100.00
2022-10-11T04:21:40.088Z,100.00
2022-10-11T04:24:13.142Z,100.00
2022-10-11T04:26:49.424Z,100.00
2022-10-11T04:29:19.127Z,100.00
2022-10-11T04:31:48.716Z,100.00
2022-10-11T04:34:18.971Z,100.00
2022-10-11T04:36:50.008Z,100.00
2022-10-11T04:39:21.845Z,100.00
2022-10-11T04:41:52.008Z,100.00
2022-10-11T04:44:22.183Z,100.00
2022-10-11T04:46:50.948Z,100.00
2022-10-11T04:49:19.563Z,100.00
2022-10-11T04:51:48.383Z,100.00
2022-10-11T04:54:17.101Z,100.00
2022-10-11T04:56:45.914Z,100.00
2022-10-11T04:59:16.220Z,100.00
2022-10-11T05:01:45.392Z,100.00
2022-10-11T05:04:14.080Z,100.00
2022-10-11T05:06:42.886Z,100.00
2022-10-11T05:09:11.624Z,100.00
2022-10-11T05:11:41.592Z,100.00
2022-10-11T05:14:10.977Z,100.00
2022-10-11T05:16:41.536Z,100.00
2022-10-11T05:19:14.150Z,100.00
2022-10-11T05:21:46.230Z,100.00
2022-10-11T05:24:18.440Z,100.00
2022-10-11T05:26:47.571Z,100.00
2022-10-11T05:29:16.550Z,100.00
2022-10-11T05:31:47.021Z,100.00
2022-10-11T05:34:15.724Z,100.00
2022-10-11T05:36:49.975Z,100.00
2022-10-11T05:39:18.695Z,100.00
2022-10-11T05:41:48.157Z,100.00
2022-10-11T05:44:16.924Z,100.00
2022-10-11T05:46:47.375Z,100.00
2022-10-11T05:49:16.204Z,100.00
2022-10-11T05:51:45.056Z,100.00
2022-10-11T05:54:15.640Z,100.00
2022-10-11T05:56:45.347Z,100.00
2022-10-11T05:59:14.431Z,100.00
2022-10-11T06:01:44.784Z,100.00
2022-10-11T06:04:16.686Z,100.00
2022-10-11T06:06:45.416Z,100.00
2022-10-11T06:09:15.186Z,100.00
2022-10-11T06:11:48.060Z,100.00
2022-10-11T06:14:16.851Z,100.00
2022-10-11T06:16:45.957Z,100.00
2022-10-11T06:19:16.195Z,100.00
2022-10-11T06:21:48.886Z,100.00
2022-10-11T06:24:17.716Z,100.00
2022-10-11T06:26:46.533Z,100.00
2022-10-11T06:29:15.155Z,100.00
2022-10-11T06:31:45.101Z,100.00
2022-10-11T06:34:15.523Z,100.00
2022-10-11T06:36:47.852Z,100.00
2022-10-11T06:39:16.836Z,100.00
2022-10-11T06:41:45.660Z,100.00
2022-10-11T06:44:16.176Z,100.00
2022-10-11T06:46:51.515Z,100.00
2022-10-11T06:49:23.618Z,100.00
2022-10-11T06:51:53.315Z,100.00
2022-10-11T06:54:22.007Z,100.00
2022-10-11T06:56:50.985Z,100.00
2022-10-11T06:59:20.110Z,100.00
2022-10-11T07:01:49.076Z,100.00
2022-10-11T07:04:18.231Z,100.00
2022-10-11T07:06:48.729Z,100.00
2022-10-11T07:09:17.603Z,100.00
2022-10-11T07:11:58.591Z,100.00
2022-10-11T07:14:27.469Z,100.00
2022-10-11T07:16:56.257Z,100.00
2022-10-11T07:19:25.058Z,100.00
2022-10-11T07:21:55.176Z,100.00
2022-10-11T07:24:26.893Z,100.00
2022-10-11T07:26:57.592Z,100.00
2022-10-11T07:29:26.420Z,100.00
2022-10-11T07:31:55.425Z,100.00
2022-10-11T07:34:24.289Z,100.00
2022-10-11T07:36:54.507Z,100.00
2022-10-11T07:39:23.315Z,100.00
2022-10-11T07:41:52.718Z,99.70
2022-10-11T07:44:21.932Z,94.66
2022-10-11T07:46:50.941Z,91.14
2022-10-11T07:49:19.844Z,89.74
2022-10-11T07:51:49.274Z,88.67
2022-10-11T07:54:22.111Z,86.46
2022-10-11T07:56:51.286Z,84.56
2022-10-11T07:59:21.516Z,85.03
2022-10-11T08:01:50.713Z,85.77
2022-10-11T08:04:21.469Z,87.38
2022-10-11T08:06:53.330Z,91.11
2022-10-11T08:09:24.038Z,94.33
2022-10-11T08:11:53.385Z,96.58
2022-10-11T08:14:22.629Z,98.63
2022-10-11T08:16:51.538Z,100.00
2022-10-11T08:19:20.521Z,100.00
2022-10-11T08:21:49.548Z,100.00
2022-10-11T08:24:21.023Z,100.00
2022-10-11T08:26:51.719Z,100.00
2022-10-11T08:29:21.823Z,100.00
2022-10-11T08:31:51.316Z,100.00
2022-10-11T08:34:20.375Z,100.00
2022-10-11T08:36:50.011Z,100.00
2022-10-11T08:39:22.842Z,100.00
2022-10-11T08:42:03.333Z,100.00
2022-10-11T08:45:10.119Z,100.00
2022-10-11T08:47:45.980Z,100.00
2022-10-11T08:50:21.768Z,100.00
2022-10-11T08:52:57.749Z,99.11
2022-10-11T08:55:36.196Z,95.68
2022-10-11T08:58:07.018Z,93.26
2022-10-11T09:00:39.959Z,89.47
2022-10-11T09:03:28.397Z,85.96
2022-10-11T09:06:13.425Z,82.84
2022-10-11T09:09:04.221Z,79.98
2022-10-11T09:11:53.448Z,76.29
2022-10-11T09:14:58.272Z,77.21
2022-10-11T09:17:48.640Z,75.42
2022-10-11T09:20:50.169Z,73.53
2022-10-11T09:23:41.270Z,73.98
2022-10-11T09:26:17.250Z,73.30
2022-10-11T09:29:01.223Z,73.36
2022-10-11T09:31:33.885Z,73.25
2022-10-11T09:34:13.050Z,71.90
2022-10-11T09:36:50.954Z,70.30
2022-10-11T09:39:33.169Z,70.18
2022-10-11T09:42:05.710Z,69.21
2022-10-11T09:44:42.002Z,69.26
2022-10-11T09:47:21.270Z,69.25
2022-10-11T09:49:55.958Z,68.59
2022-10-11T09:52:29.264Z,68.23
2022-10-11T09:55:04.431Z,69.03
2022-10-11T09:57:35.982Z,68.52
2022-10-11T10:00:20.706Z,67.43
2022-10-11T10:02:54.077Z,66.05
2022-10-11T10:05:29.218Z,65.38
2022-10-11T10:08:24.914Z,64.73
2022-10-11T10:11:03.755Z,64.92
2022-10-11T10:13:46.666Z,65.04
2022-10-11T10:16:29.956Z,65.97
2022-10-11T10:19:03.755Z,65.76
2022-10-11T10:21:37.569Z,63.61
2022-10-11T10:24:18.724Z,64.52
2022-10-11T10:27:17.516Z,64.65
2022-10-11T10:30:03.704Z,65.40
2022-10-11T10:32:47.569Z,64.01
2022-10-11T10:35:42.732Z,64.58
2022-10-11T10:38:27.069Z,65.84
2022-10-11T10:40:59.620Z,64.35
2022-10-11T10:43:34.594Z,65.30
2022-10-11T10:46:46.136Z,66.11
2022-10-11T10:49:51.928Z,65.13
2022-10-11T10:52:47.674Z,65.38
2022-10-11T10:55:27.680Z,65.71
2022-10-11T10:58:18.909Z,65.94
2022-10-11T11:00:52.674Z,64.83
2022-10-11T11:03:30.516Z,65.61
2022-10-11T11:06:04.723Z,65.99
2022-10-11T11:09:01.711Z,66.18
2022-10-11T11:11:51.013Z,64.72
2022-10-11T11:14:39.405Z,65.59
2022-10-11T11:17:26.628Z,65.65
2022-10-11T11:20:18.213Z,65.11
2022-10-11T11:23:03.119Z,66.65
2022-10-11T11:25:48.231Z,64.69
2022-10-11T11:28:48.666Z,63.35
2022-10-11T11:31:43.795Z,64.17
2022-10-11T11:34:24.238Z,64.10
2022-10-11T11:37:00.001Z,64.99
2022-10-11T11:39:35.703Z,64.72
2022-10-11T11:42:16.643Z,64.52
2022-10-11T11:44:50.055Z,64.63
2022-10-11T11:47:29.303Z,65.15
2022-10-11T11:50:28.686Z,63.59
2022-10-11T11:53:08.051Z,64.65
2022-10-11T11:55:55.780Z,62.40
2022-10-11T11:58:38.996Z,63.30
2022-10-11T12:01:27.629Z,63.26
2022-10-11T12:04:06.426Z,62.61
2022-10-11T12:06:52.477Z,62.27
2022-10-11T12:09:28.876Z,62.26
2022-10-11T12:12:01.833Z,61.70
2022-10-11T12:14:42.047Z,61.21
2022-10-11T12:17:21.584Z,62.12
2022-10-11T12:20:17.710Z,62.30
2022-10-11T12:23:00.462Z,60.62
2022-10-11T12:25:44.848Z,58.81
2022-10-11T12:29:04.604Z,60.88
2022-10-11T12:31:40.305Z,61.76
2022-10-11T12:37:56.200Z,63.19
2022-10-11T12:40:47.385Z,63.70
2022-10-11T12:43:37.678Z,64.08
2022-10-11T12:46:39.649Z,64.21
2022-10-11T12:49:38.498Z,66.04
2022-10-11T12:52:29.477Z,67.39
2022-10-11T12:55:30.117Z,68.02
2022-10-11T12:58:26.838Z,68.07
2022-10-11T13:01:23.398Z,68.48
2022-10-11T13:04:04.689Z,69.82
2022-10-11T13:06:39.586Z,71.07
2022-10-11T13:09:24.584Z,71.38
2022-10-11T13:11:58.601Z,72.15
2022-10-11T13:14:30.761Z,72.37
2022-10-11T13:17:09.245Z,73.61
2022-10-11T13:19:44.692Z,75.03
2022-10-11T13:22:24.221Z,75.16
2022-10-11T13:24:57.655Z,76.31
2022-10-11T13:27:29.713Z,80.54
2022-10-11T13:30:03.531Z,83.96
2022-10-11T13:32:35.553Z,86.88
2022-10-11T13:35:10.286Z,88.85
2022-10-11T13:37:47.208Z,90.49
2022-10-11T13:40:18.602Z,90.79
2022-10-11T13:42:49.608Z,91.23
2022-10-11T13:45:23.332Z,90.54
2022-10-11T13:47:54.629Z,88.67
2022-10-11T13:50:32.177Z,85.46
2022-10-11T13:53:06.672Z,84.57
2022-10-11T13:55:48.715Z,83.33
2022-10-11T13:58:29.785Z,83.47
2022-10-11T14:01:02.282Z,83.89
2022-10-11T14:03:42.790Z,85.06
2022-10-11T14:06:12.966Z,86.31
2022-10-11T14:08:48.742Z,87.43
2022-10-11T14:11:36.492Z,88.13
2022-10-11T14:14:31.244Z,89.71
2022-10-11T14:17:06.919Z,90.46
2022-10-11T14:19:39.129Z,91.20
2022-10-11T14:22:13.792Z,91.97
2022-10-11T14:24:44.492Z,92.15
2022-10-11T14:27:20.836Z,92.25
2022-10-11T14:30:20.285Z,92.51
2022-10-11T14:32:40.098Z,92.89
2022-10-11T14:35:18.024Z,92.79
2022-10-11T14:37:47.245Z,92.38
2022-10-11T14:40:40.445Z,91.24
2022-10-11T14:43:09.218Z,90.01
2022-10-11T14:45:40.074Z,89.71
2022-10-11T14:48:09.344Z,88.77
2022-10-11T14:50:47.885Z,87.56
2022-10-11T14:53:16.985Z,86.76
2022-10-11T14:55:47.659Z,86.49
2022-10-11T14:58:19.838Z,86.19
2022-10-11T15:00:48.449Z,85.84
2022-10-11T15:03:17.110Z,85.75
2022-10-11T15:05:45.988Z,85.39
2022-10-11T15:08:16.750Z,85.20
2022-10-11T15:10:47.437Z,84.77
2022-10-11T15:13:16.185Z,84.80
2022-10-11T15:15:45.434Z,84.85
2022-10-11T15:18:17.791Z,84.19
2022-10-11T15:20:48.148Z,84.59
2022-10-11T15:23:17.129Z,83.74
2022-10-11T15:25:47.418Z,82.62
2022-10-11T15:28:27.126Z,80.59
2022-10-11T15:30:56.421Z,80.65
2022-10-11T15:33:28.097Z,81.28
2022-10-11T15:35:56.837Z,82.04
2022-10-11T15:38:29.774Z,82.88
2022-10-11T15:41:03.821Z,83.73
2022-10-11T15:43:33.075Z,84.45
2022-10-11T15:46:05.303Z,84.90
2022-10-11T15:48:34.580Z,85.16
2022-10-11T15:51:03.826Z,85.47
2022-10-11T15:53:32.667Z,86.17
2022-10-11T15:56:06.386Z,86.36
2022-10-11T15:58:38.919Z,86.42
2022-10-11T16:01:11.064Z,85.89
2022-10-11T16:03:40.383Z,85.75
2022-10-11T16:06:09.897Z,85.43
2022-10-11T16:08:39.552Z,85.73
2022-10-11T16:11:14.019Z,86.12
2022-10-11T16:13:43.075Z,86.35
2022-10-11T16:16:13.577Z,86.43
2022-10-11T16:18:42.890Z,86.49
2022-10-11T16:21:15.682Z,87.05
2022-10-11T16:23:47.818Z,87.82
2022-10-11T16:26:18.133Z,87.95
2022-10-11T16:28:48.376Z,88.64
2022-10-11T16:31:21.111Z,89.56
2022-10-11T16:33:55.473Z,90.20
2022-10-11T16:36:36.455Z,90.92
2022-10-11T16:39:12.101Z,91.92
2022-10-11T16:41:43.883Z,92.72
2022-10-11T16:44:17.503Z,93.57
2022-10-11T16:46:48.762Z,94.30
2022-10-11T16:49:20.158Z,95.09
2022-10-11T16:51:49.365Z,95.73
2022-10-11T16:54:20.692Z,96.29
2022-10-11T16:56:51.731Z,96.69
2022-10-11T16:59:21.252Z,96.98
2022-10-11T17:01:51.143Z,97.72
2022-10-11T17:04:20.295Z,98.36
2022-10-11T17:06:50.160Z,99.54
2022-10-11T17:09:19.935Z,100.00
2022-10-11T17:11:49.358Z,99.85
2022-10-11T17:14:21.820Z,100.00
2022-10-11T17:16:50.861Z,100.00
2022-10-11T17:19:20.090Z,100.00
2022-10-11T17:21:48.757Z,100.00
2022-10-11T17:24:17.508Z,100.00
2022-10-11T17:26:46.487Z,100.00
2022-10-11T17:29:18.660Z,100.00
2022-10-11T17:31:49.352Z,100.00
2022-10-11T17:34:19.660Z,100.00
2022-10-11T17:36:49.165Z,100.00
2022-10-11T17:39:21.302Z,100.00
2022-10-11T17:41:50.300Z,100.00
2022-10-11T17:44:20.902Z,100.00
2022-10-11T17:46:50.422Z,100.00
2022-10-11T17:49:19.518Z,100.00
2022-10-11T17:51:48.195Z,100.00
2022-10-11T17:54:16.893Z,100.00
2022-10-11T17:56:50.365Z,100.00
2022-10-11T17:59:23.078Z,100.00
2022-10-11T18:01:52.373Z,100.00
2022-10-11T18:04:23.397Z,100.00
2022-10-11T18:06:52.079Z,100.00
2022-10-11T18:09:21.679Z,100.00
2022-10-11T18:11:51.784Z,100.00
2022-10-11T18:14:22.213Z,100.00
2022-10-11T18:16:50.971Z,100.00
2022-10-11T18:19:19.963Z,100.00
2022-10-11T18:21:48.679Z,100.00
2022-10-11T18:24:18.241Z,100.00
2022-10-11T18:26:48.163Z,100.00
2022-10-11T18:29:17.451Z,100.00
2022-10-11T18:31:47.554Z,100.00
2022-10-11T18:34:16.616Z,100.00
2022-10-11T18:36:45.775Z,100.00
2022-10-11T18:39:16.477Z,100.00
2022-10-11T18:41:45.534Z,99.98
2022-10-11T18:44:17.048Z,99.25
2022-10-11T18:46:48.757Z,98.93
2022-10-11T18:49:20.368Z,98.72
2022-10-11T18:51:49.519Z,99.10
2022-10-11T18:54:21.253Z,99.42
2022-10-11T18:56:50.901Z,99.94
2022-10-11T18:59:20.498Z,100.00
2022-10-11T19:01:52.530Z,100.00
2022-10-11T19:04:22.025Z,100.00
2022-10-11T19:06:53.679Z,100.00
2022-10-11T19:09:26.755Z,100.00
2022-10-11T19:11:59.252Z,100.00
2022-10-11T19:14:30.975Z,100.00
2022-10-11T19:17:01.362Z,100.00
2022-10-11T19:19:37.793Z,100.00
2022-10-11T19:22:06.744Z,100.00
2022-10-11T19:24:35.824Z,100.00
2022-10-11T19:27:04.650Z,100.00
2022-10-11T19:29:34.750Z,100.00
2022-10-11T19:32:05.625Z,100.00
2022-10-11T19:34:34.376Z,100.00
2022-10-11T19:37:04.188Z,100.00
2022-10-11T19:39:33.757Z,100.00
2022-10-11T19:42:04.893Z,100.00
2022-10-11T19:44:38.693Z,100.00
2022-10-11T19:47:14.454Z,100.00
2022-10-11T19:49:45.822Z,100.00
2022-10-11T19:52:14.517Z,100.00
2022-10-11T19:54:44.333Z,100.00
2022-10-11T19:57:13.168Z,100.00
2022-10-11T20:02:37.229Z,100.00
2022-10-11T20:05:06.914Z,100.00
2022-10-11T20:07:35.632Z,100.00
2022-10-11T20:10:04.787Z,100.00
2022-10-11T20:12:34.874Z,100.00
2022-10-11T20:15:04.235Z,100.00
2022-10-11T20:17:47.011Z,100.00
2022-10-11T20:20:19.100Z,100.00
2022-10-11T20:22:50.327Z,100.00
2022-10-11T20:25:19.609Z,100.00
2022-10-11T20:27:48.249Z,100.00
2022-10-11T20:30:17.091Z,100.00
2022-10-11T20:32:45.700Z,100.00
2022-10-11T20:35:16.723Z,100.00
2022-10-11T20:37:45.548Z,100.00
2022-10-11T20:40:16.371Z,100.00
2022-10-11T20:42:45.127Z,100.00
2022-10-11T20:45:14.025Z,100.00
2022-10-11T20:47:42.721Z,100.00
2022-10-11T20:50:11.856Z,100.00
2022-10-11T20:52:42.181Z,100.00
2022-10-11T20:55:11.448Z,100.00
2022-10-11T20:57:40.434Z,100.00
2022-10-11T21:00:11.834Z,100.00
2022-10-11T21:02:41.059Z,100.00
2022-10-11T21:05:12.672Z,100.00
2022-10-11T21:07:44.503Z,100.00
2022-10-11T21:10:13.760Z,100.00
2022-10-11T21:12:44.124Z,100.00
2022-10-11T21:15:13.003Z,100.00
2022-10-11T21:17:42.163Z,100.00
2022-10-11T21:20:11.884Z,100.00
2022-10-11T21:22:43.630Z,100.00
2022-10-11T21:25:13.664Z,100.00
2022-10-11T21:27:44.046Z,100.00
2022-10-11T21:30:13.028Z,100.00
2022-10-11T21:32:42.860Z,100.00
2022-10-11T21:35:15.807Z,100.00
2022-10-11T21:37:49.404Z,100.00
2022-10-11T21:40:19.753Z,100.00
2022-10-11T21:42:54.720Z,100.00
2022-10-11T21:45:23.550Z,100.00
2022-10-11T21:47:53.231Z,100.00
2022-10-11T21:50:22.605Z,100.00
2022-10-11T21:52:51.767Z,100.00
2022-10-11T21:55:22.245Z,100.00
2022-10-11T21:57:51.330Z,100.00
2022-10-11T22:00:20.478Z,100.00
2022-10-11T22:02:52.403Z,100.00
2022-10-11T22:05:21.347Z,100.00
2022-10-11T22:07:51.989Z,100.00
2022-10-11T22:10:22.366Z,100.00
2022-10-11T22:12:52.753Z,100.00
2022-10-11T22:15:21.537Z,100.00
2022-10-11T22:17:52.873Z,100.00
2022-10-11T22:20:22.277Z,100.00
2022-10-11T22:22:52.069Z,100.00
2022-10-11T22:25:24.029Z,100.00
2022-10-11T22:27:56.254Z,100.00
2022-10-11T22:30:25.601Z,100.00
2022-10-11T22:32:55.881Z,100.00
2022-10-11T22:35:25.482Z,100.00
2022-10-11T22:37:57.402Z,100.00
2022-10-11T22:43:21.742Z,100.00
2022-10-11T22:45:50.860Z,100.00
2022-10-11T22:48:19.547Z,100.00
2022-10-11T22:50:48.296Z,100.00
2022-10-11T22:53:17.727Z,100.00
2022-10-11T22:55:49.916Z,100.00
2022-10-11T22:58:18.785Z,100.00
2022-10-11T23:00:47.893Z,100.00
2022-10-11T23:03:19.385Z,100.00
2022-10-11T23:05:59.124Z,100.00
2022-10-11T23:08:28.227Z,100.00
2022-10-11T23:11:05.140Z,100.00
2022-10-11T23:13:33.916Z,100.00
2022-10-11T23:16:08.224Z,100.00
2022-10-11T23:18:37.823Z,100.00
2022-10-11T23:21:10.407Z,100.00
2022-10-11T23:23:40.877Z,100.00
2022-10-11T23:26:15.143Z,100.00
2022-10-11T23:28:45.063Z,100.00
2022-10-11T23:31:18.905Z,100.00
2022-10-11T23:33:49.404Z,100.00
2022-10-11T23:36:22.063Z,100.00
2022-10-11T23:38:53.464Z,100.00
2022-10-11T23:41:25.568Z,100.00
2022-10-11T23:43:54.384Z,100.00
2022-10-11T23:46:23.574Z,100.00
2022-10-11T23:48:52.294Z,100.00
2022-10-11T23:51:21.353Z,100.00
2022-10-11T23:53:50.348Z,100.00
2022-10-11T23:56:19.333Z,100.00
2022-10-11T23:58:52.330Z,100.00
